createdAt,value
2022-12-15T00:00:03.518Z,45.13
2022-12-15T00:02:50.823Z,50.37
2022-12-15T00:05:36.761Z,46.67
2022-12-15T00:08:25.791Z,50.17
2022-12-15T00:11:11.121Z,53.40
2022-12-15T00:13:56.784Z,47.07
2022-12-15T00:16:42.263Z,48.93
2022-12-15T00:19:29.367Z,47.53
2022-12-15T00:22:14.682Z,46.63
2022-12-15T00:25:00.224Z,45.77
2022-12-15T00:27:46.137Z,48.07
2022-12-15T00:30:32.092Z,45.90
2022-12-15T00:33:17.443Z,44.07
2022-12-15T00:36:04.673Z,48.13
2022-12-15T00:38:45.079Z,50.03
2022-12-15T00:41:15.533Z,47.47
2022-12-15T00:43:44.052Z,46.63
2022-12-15T00:46:30.140Z,46.20
2022-12-15T00:48:58.885Z,45.43
2022-12-15T00:51:46.452Z,45.93
2022-12-15T00:54:31.972Z,45.00
2022-12-15T00:57:17.530Z,46.57
2022-12-15T01:00:02.868Z,48.83
2022-12-15T01:02:48.522Z,47.43
2022-12-15T01:05:34.239Z,51.60
2022-12-15T01:08:20.907Z,54.10
2022-12-15T01:11:06.294Z,53.40
2022-12-15T01:13:52.046Z,53.43
2022-12-15T01:16:37.339Z,52.27
2022-12-15T01:19:23.174Z,50.27
2022-12-15T01:21:51.349Z,52.27
2022-12-15T01:24:20.891Z,54.17
2022-12-15T01:26:49.200Z,52.67
2022-12-15T01:29:17.456Z,57.50
2022-12-15T01:31:49.882Z,56.10
2022-12-15T01:34:20.132Z,53.60
2022-12-15T01:36:48.498Z,55.60
2022-12-15T01:39:17.175Z,55.87
2022-12-15T01:41:45.793Z,54.07
2022-12-15T01:44:21.719Z,52.93
2022-12-15T01:46:52.345Z,60.73
2022-12-15T01:49:27.375Z,55.47
2022-12-15T01:52:00.489Z,50.80
2022-12-15T01:54:31.869Z,54.20
2022-12-15T01:57:05.996Z,52.37
2022-12-15T01:59:38.813Z,56.87
2022-12-15T02:02:07.393Z,52.97
2022-12-15T02:04:37.851Z,54.07
2022-12-15T02:07:06.152Z,53.77
2022-12-15T02:09:34.398Z,54.97
2022-12-15T02:12:11.038Z,54.80
2022-12-15T02:14:48.433Z,54.37
2022-12-15T02:17:26.127Z,52.07
2022-12-15T02:20:25.158Z,56.80
2022-12-15T02:23:37.634Z,56.47
2022-12-15T02:26:44.333Z,52.80
2022-12-15T02:29:41.239Z,55.37
2022-12-15T02:32:13.558Z,57.63
2022-12-15T02:34:45.449Z,58.83
2022-12-15T02:37:19.101Z,58.27
2022-12-15T02:39:47.374Z,61.73
2022-12-15T02:42:15.667Z,59.97
2022-12-15T02:44:48.604Z,65.80
2022-12-15T02:47:31.259Z,60.83
2022-12-15T02:50:18.079Z,59.97
2022-12-15T02:53:00.063Z,62.33
2022-12-15T02:55:37.132Z,66.20
2022-12-15T02:58:12.368Z,61.57
2022-12-15T03:00:44.460Z,64.23
2022-12-15T03:03:20.218Z,58.73
2022-12-15T03:05:49.069Z,60.37
2022-12-15T03:08:17.303Z,61.20
2022-12-15T03:10:45.549Z,62.90
2022-12-15T03:13:14.231Z,62.23
2022-12-15T03:15:42.631Z,60.30
2022-12-15T03:18:10.897Z,59.53
2022-12-15T03:20:40.430Z,55.30
2022-12-15T03:23:08.705Z,60.03
2022-12-15T03:25:37.751Z,53.57
2022-12-15T03:28:06.149Z,56.20
2022-12-15T03:30:34.301Z,58.73
2022-12-15T03:33:02.490Z,63.00
2022-12-15T03:35:31.057Z,61.40
2022-12-15T03:38:00.879Z,56.70
2022-12-15T03:40:29.059Z,62.57
2022-12-15T03:42:58.133Z,61.13
2022-12-15T03:45:28.692Z,60.87
2022-12-15T03:47:58.242Z,57.10
2022-12-15T03:50:28.813Z,59.20
2022-12-15T03:52:58.943Z,62.97
2022-12-15T03:55:29.244Z,62.10
2022-12-15T03:57:58.055Z,60.80
2022-12-15T04:00:26.769Z,63.00
2022-12-15T04:02:55.227Z,62.20
2022-12-15T04:05:26.109Z,61.50
2022-12-15T04:07:54.633Z,62.27
2022-12-15T04:10:26.296Z,61.43
2022-12-15T04:13:00.285Z,66.10
2022-12-15T04:15:29.291Z,62.67
2022-12-15T04:17:58.373Z,65.63
2022-12-15T04:20:26.604Z,64.07
2022-12-15T04:22:54.781Z,60.93
2022-12-15T04:25:42.606Z,63.10
2022-12-15T04:28:30.657Z,60.90
2022-12-15T04:31:19.422Z,67.53
2022-12-15T04:34:08.148Z,62.23
2022-12-15T04:36:55.079Z,60.00
2022-12-15T04:39:40.930Z,60.50
2022-12-15T04:42:26.369Z,60.57
2022-12-15T04:45:20.542Z,56.33
2022-12-15T04:48:06.526Z,61.77
2022-12-15T04:50:52.407Z,59.10
2022-12-15T04:53:39.739Z,59.87
2022-12-15T04:56:29.993Z,59.43
2022-12-15T04:59:15.800Z,62.00
2022-12-15T05:02:03.222Z,58.53
2022-12-15T05:04:49.254Z,56.43
2022-12-15T05:07:34.978Z,58.40
2022-12-15T05:10:20.948Z,56.57
2022-12-15T05:13:06.345Z,53.63
2022-12-15T05:15:52.414Z,55.50
2022-12-15T05:18:39.687Z,52.40
2022-12-15T05:21:26.016Z,57.40
2022-12-15T05:24:11.926Z,54.83
2022-12-15T05:26:57.486Z,52.60
2022-12-15T05:29:42.982Z,53.57
2022-12-15T05:32:13.218Z,50.87
2022-12-15T05:34:42.745Z,49.23
2022-12-15T05:37:12.254Z,50.30
2022-12-15T05:39:40.428Z,53.57
2022-12-15T05:42:09.095Z,46.73
2022-12-15T05:44:37.274Z,45.43
2022-12-15T05:47:05.934Z,42.23
2022-12-15T05:49:34.386Z,46.90
2022-12-15T05:52:04.370Z,41.97
2022-12-15T05:54:32.923Z,43.63
2022-12-15T05:57:01.167Z,40.40
2022-12-15T05:59:29.325Z,37.60
2022-12-15T06:01:57.530Z,36.93
2022-12-15T06:04:26.043Z,35.27
2022-12-15T06:06:54.222Z,34.40
2022-12-15T06:09:23.804Z,34.83
2022-12-15T06:11:51.928Z,33.10
2022-12-15T06:14:20.083Z,37.10
2022-12-15T06:16:51.085Z,33.47
2022-12-15T06:19:20.684Z,31.93
2022-12-15T06:21:49.032Z,32.57
2022-12-15T06:24:17.198Z,31.73
2022-12-15T06:26:49.854Z,35.03
2022-12-15T06:29:18.880Z,31.57
2022-12-15T06:31:47.245Z,28.57
2022-12-15T06:34:17.147Z,27.30
2022-12-15T06:36:45.645Z,25.43
2022-12-15T06:39:15.734Z,24.93
2022-12-15T06:41:46.061Z,24.53
2022-12-15T06:44:15.949Z,24.03
2022-12-15T06:46:46.441Z,25.80
2022-12-15T06:49:15.732Z,22.93
2022-12-15T06:51:45.028Z,25.43
2022-12-15T06:54:13.550Z,23.53
2022-12-15T06:56:42.670Z,22.63
2022-12-15T06:59:13.368Z,20.80
2022-12-15T07:01:42.936Z,22.53
2022-12-15T07:04:11.729Z,22.60
2022-12-15T07:06:40.901Z,20.27
2022-12-15T07:09:13.558Z,20.33
2022-12-15T07:11:41.727Z,21.77
2022-12-15T07:14:12.331Z,21.27
2022-12-15T07:16:41.158Z,21.10
2022-12-15T07:19:13.052Z,18.10
2022-12-15T07:21:42.265Z,19.27
2022-12-15T07:24:12.678Z,18.93
2022-12-15T07:26:41.621Z,18.80
2022-12-15T07:29:10.098Z,17.90
2022-12-15T07:31:39.754Z,21.63
2022-12-15T07:34:08.237Z,20.97
2022-12-15T07:36:36.904Z,24.00
2022-12-15T07:39:06.010Z,21.43
2022-12-15T07:41:34.304Z,30.07
2022-12-15T07:44:03.131Z,27.23
2022-12-15T07:46:31.375Z,29.60
2022-12-15T07:49:01.028Z,29.40
2022-12-15T07:51:29.469Z,30.13
2022-12-15T07:53:57.619Z,30.63
2022-12-15T07:56:25.807Z,28.40
2022-12-15T07:58:54.345Z,29.93
2022-12-15T08:01:22.781Z,30.07
2022-12-15T08:03:51.337Z,29.27
2022-12-15T08:06:21.096Z,27.87
2022-12-15T08:08:51.230Z,31.10
2022-12-15T08:11:21.716Z,32.73
2022-12-15T08:14:02.522Z,30.60
2022-12-15T08:16:32.191Z,29.73
2022-12-15T08:19:00.719Z,29.27
2022-12-15T08:21:31.337Z,25.90
2022-12-15T08:24:00.901Z,27.13
2022-12-15T08:26:31.082Z,29.10
2022-12-15T08:29:32.043Z,25.93
2022-12-15T08:31:52.522Z,27.57
2022-12-15T08:34:21.225Z,30.30
2022-12-15T08:36:51.145Z,26.80
2022-12-15T08:39:20.605Z,27.53
2022-12-15T08:41:49.062Z,27.63
2022-12-15T08:44:17.428Z,24.90
2022-12-15T08:46:45.779Z,23.27
2022-12-15T08:49:18.043Z,27.97
2022-12-15T08:51:52.347Z,26.30
2022-12-15T08:54:21.329Z,26.20
2022-12-15T08:56:49.913Z,27.57
2022-12-15T08:59:19.238Z,31.87
2022-12-15T09:01:48.399Z,28.97
2022-12-15T09:04:17.134Z,28.70
2022-12-15T09:06:50.259Z,29.90
2022-12-15T09:09:20.829Z,27.83
2022-12-15T09:11:49.303Z,32.93
2022-12-15T09:14:19.617Z,27.70
2022-12-15T09:16:50.482Z,25.97
2022-12-15T09:19:19.309Z,25.83
2022-12-15T09:21:48.328Z,29.13
2022-12-15T09:24:26.065Z,27.73
2022-12-15T09:27:03.207Z,26.60
2022-12-15T09:29:31.701Z,26.80
2022-12-15T09:32:00.429Z,27.10
2022-12-15T09:34:28.880Z,27.77
2022-12-15T09:36:57.842Z,24.57
2022-12-15T09:39:26.278Z,24.80
2022-12-15T09:41:55.758Z,25.03
2022-12-15T09:44:28.414Z,21.10
2022-12-15T09:47:05.726Z,20.10
2022-12-15T09:49:45.936Z,24.33
2022-12-15T09:52:15.082Z,22.70
2022-12-15T09:54:44.961Z,23.70
2022-12-15T09:57:21.117Z,22.83
2022-12-15T09:59:58.099Z,22.00
2022-12-15T10:02:36.363Z,26.73
2022-12-15T10:05:11.654Z,23.03
2022-12-15T10:07:43.796Z,22.87
2022-12-15T10:10:16.876Z,25.43
2022-12-15T10:12:57.670Z,28.00
2022-12-15T10:15:32.907Z,24.03
2022-12-15T10:18:03.159Z,25.67
2022-12-15T10:20:32.208Z,24.37
2022-12-15T10:23:03.896Z,25.20
2022-12-15T10:25:33.300Z,22.37
2022-12-15T10:28:11.185Z,24.30
2022-12-15T10:30:45.480Z,25.10
2022-12-15T10:33:19.317Z,23.40
2022-12-15T10:35:48.487Z,25.53
2022-12-15T10:38:23.718Z,30.60
2022-12-15T10:40:53.166Z,27.73
2022-12-15T10:43:29.034Z,23.57
2022-12-15T10:46:13.815Z,21.97
2022-12-15T10:48:42.815Z,29.07
2022-12-15T10:51:21.017Z,23.63
2022-12-15T10:53:52.289Z,24.60
2022-12-15T10:56:30.633Z,22.23
2022-12-15T10:59:25.154Z,23.17
2022-12-15T11:01:54.868Z,23.43
2022-12-15T11:04:30.845Z,25.37
2022-12-15T11:07:00.699Z,25.07
2022-12-15T11:09:34.495Z,26.13
2022-12-15T11:12:21.742Z,23.17
2022-12-15T11:14:52.189Z,26.23
2022-12-15T11:17:23.457Z,23.10
2022-12-15T11:20:02.310Z,24.47
2022-12-15T11:22:41.946Z,25.10
2022-12-15T11:25:23.711Z,24.23
2022-12-15T11:27:56.010Z,26.03
2022-12-15T11:30:27.146Z,25.13
2022-12-15T11:33:00.986Z,26.00
2022-12-15T11:35:50.257Z,27.30
2022-12-15T11:38:29.775Z,23.47
2022-12-15T11:41:06.435Z,27.53
2022-12-15T11:44:06.263Z,28.37
2022-12-15T11:46:41.117Z,28.30
2022-12-15T11:49:41.384Z,23.67
2022-12-15T11:52:16.593Z,23.80
2022-12-15T11:54:51.181Z,28.83
2022-12-15T11:57:43.908Z,31.53
2022-12-15T12:00:16.404Z,26.73
2022-12-15T12:03:16.539Z,28.73
2022-12-15T12:06:12.170Z,29.10
2022-12-15T12:08:58.550Z,28.50
2022-12-15T12:11:33.808Z,30.73
2022-12-15T12:14:28.085Z,30.83
2022-12-15T12:17:03.132Z,30.40
2022-12-15T12:19:36.888Z,29.97
2022-12-15T12:22:15.265Z,33.13
2022-12-15T12:24:50.782Z,35.97
2022-12-15T12:27:30.140Z,34.67
2022-12-15T12:30:03.386Z,32.73
2022-12-15T12:32:41.316Z,33.07
2022-12-15T12:35:32.012Z,32.53
2022-12-15T12:38:04.869Z,31.00
2022-12-15T12:40:46.397Z,34.17
2022-12-15T12:43:23.585Z,38.27
2022-12-15T12:45:55.762Z,31.60
2022-12-15T12:48:31.666Z,30.57
2022-12-15T12:51:20.703Z,31.83
2022-12-15T12:53:50.522Z,30.40
2022-12-15T12:56:50.380Z,32.07
2022-12-15T12:59:52.141Z,35.83
2022-12-15T13:02:44.816Z,35.87
2022-12-15T13:05:32.512Z,35.27
2022-12-15T13:08:40.410Z,35.50
2022-12-15T13:11:56.529Z,34.93
2022-12-15T13:14:51.657Z,35.97
2022-12-15T13:17:29.090Z,36.00
2022-12-15T13:20:25.893Z,36.83
2022-12-15T13:22:55.585Z,41.23
2022-12-15T13:25:48.557Z,42.93
2022-12-15T13:28:59.546Z,41.10
2022-12-15T13:31:49.385Z,44.60
2022-12-15T13:34:29.174Z,49.97
2022-12-15T13:37:03.456Z,46.80
2022-12-15T13:39:53.971Z,50.20
2022-12-15T13:45:51.964Z,49.27
2022-12-15T13:48:35.065Z,48.33
2022-12-15T13:51:19.829Z,43.23
2022-12-15T13:53:52.287Z,45.90
2022-12-15T13:56:29.334Z,46.33
2022-12-15T13:59:04.135Z,47.37
2022-12-15T14:01:34.145Z,50.53
2022-12-15T14:04:07.755Z,49.67
2022-12-15T14:06:39.208Z,45.87
2022-12-15T14:09:13.633Z,46.47
2022-12-15T14:11:58.616Z,48.57
2022-12-15T14:14:30.348Z,51.63
2022-12-15T14:17:02.736Z,51.13
2022-12-15T14:19:42.205Z,51.40
2022-12-15T14:22:27.472Z,49.57
2022-12-15T14:25:03.215Z,54.73
2022-12-15T14:27:33.780Z,52.33
2022-12-15T14:30:23.391Z,54.33
2022-12-15T14:32:56.784Z,53.30
2022-12-15T14:35:31.534Z,51.43
2022-12-15T14:38:03.390Z,54.47
2022-12-15T14:40:31.869Z,51.67
2022-12-15T14:43:00.312Z,56.13
2022-12-15T14:45:32.581Z,56.20
2022-12-15T14:48:39.527Z,50.53
2022-12-15T14:50:52.465Z,56.03
2022-12-15T14:53:22.623Z,56.77
2022-12-15T14:55:51.579Z,58.33
2022-12-15T14:58:33.730Z,53.53
2022-12-15T15:01:03.869Z,56.57
2022-12-15T15:03:13.202Z,45.80
2022-12-15T15:03:39.131Z,55.33
2022-12-15T15:06:17.125Z,55.07
2022-12-15T15:08:50.049Z,51.87
2022-12-15T15:11:29.389Z,50.03
2022-12-15T15:14:01.248Z,54.90
2022-12-15T15:16:30.180Z,41.07
2022-12-15T15:19:03.057Z,48.93
2022-12-15T15:21:35.060Z,46.23
2022-12-15T15:24:04.994Z,44.67
2022-12-15T15:26:33.381Z,40.70
2022-12-15T15:29:01.666Z,44.80
2022-12-15T15:31:41.325Z,40.13
2022-12-15T15:34:11.631Z,40.67
2022-12-15T15:36:40.903Z,44.90
2022-12-15T15:39:15.263Z,40.13
2022-12-15T15:41:43.808Z,34.90
2022-12-15T15:44:14.838Z,41.37
2022-12-15T15:46:47.305Z,36.60
2022-12-15T15:49:20.345Z,31.87
2022-12-15T15:51:48.845Z,34.33
2022-12-15T15:54:19.109Z,33.93
2022-12-15T15:56:47.240Z,34.27
2022-12-15T15:59:17.449Z,38.13
2022-12-15T16:01:46.584Z,35.40
2022-12-15T16:04:16.290Z,33.50
2022-12-15T16:06:47.508Z,36.83
2022-12-15T16:09:17.031Z,34.53
2022-12-15T16:11:46.921Z,38.63
2022-12-15T16:14:16.941Z,43.37
2022-12-15T16:16:45.826Z,38.60
2022-12-15T16:19:14.087Z,41.17
2022-12-15T16:21:44.550Z,42.77
2022-12-15T16:24:17.285Z,37.07
2022-12-15T16:26:48.686Z,40.53
2022-12-15T16:29:18.568Z,42.17
2022-12-15T16:31:47.230Z,41.53
2022-12-15T16:34:16.653Z,41.27
2022-12-15T16:36:46.785Z,46.63
2022-12-15T16:39:24.659Z,41.73
2022-12-15T16:41:53.959Z,45.97
2022-12-15T16:44:22.378Z,44.20
2022-12-15T16:46:51.382Z,41.20
2022-12-15T16:49:19.941Z,45.63
2022-12-15T16:51:51.268Z,38.10
2022-12-15T16:54:21.947Z,37.63
2022-12-15T16:56:52.038Z,42.50
2022-12-15T16:59:36.424Z,38.97
2022-12-15T17:02:12.558Z,37.90
2022-12-15T17:04:41.057Z,40.43
2022-12-15T17:07:19.492Z,36.77
2022-12-15T17:09:48.747Z,39.03
2022-12-15T17:12:18.628Z,37.27
2022-12-15T17:14:47.138Z,33.13
2022-12-15T17:17:16.221Z,37.57
2022-12-15T17:20:11.890Z,37.33
2022-12-15T17:22:34.763Z,30.53
2022-12-15T17:25:03.481Z,32.70
2022-12-15T17:27:31.898Z,34.50
2022-12-15T17:30:01.045Z,30.43
2022-12-15T17:32:29.523Z,33.73
2022-12-15T17:34:58.129Z,36.37
2022-12-15T17:37:30.541Z,30.40
2022-12-15T17:40:05.087Z,26.57
2022-12-15T17:42:33.513Z,28.03
2022-12-15T17:45:02.020Z,30.93
2022-12-15T17:47:30.659Z,26.97
2022-12-15T17:49:59.161Z,28.83
2022-12-15T17:52:29.122Z,25.47
2022-12-15T17:54:58.437Z,26.07
2022-12-15T17:57:31.422Z,25.13
2022-12-15T18:00:02.012Z,27.17
2022-12-15T18:02:30.868Z,27.47
2022-12-15T18:04:59.626Z,25.27
2022-12-15T18:07:27.801Z,25.80
2022-12-15T18:09:55.997Z,26.10
2022-12-15T18:12:26.161Z,24.47
2022-12-15T18:14:56.822Z,23.13
2022-12-15T18:17:25.458Z,26.27
2022-12-15T18:19:53.578Z,24.13
2022-12-15T18:22:23.581Z,23.83
2022-12-15T18:24:53.410Z,26.80
2022-12-15T18:27:24.589Z,23.90
2022-12-15T18:29:52.912Z,21.90
2022-12-15T18:32:23.729Z,24.90
2022-12-15T18:34:52.355Z,25.63
2022-12-15T18:37:22.957Z,24.40
2022-12-15T18:39:51.632Z,23.80
2022-12-15T18:42:21.955Z,22.03
2022-12-15T18:44:52.186Z,21.83
2022-12-15T18:47:25.047Z,26.47
2022-12-15T18:49:53.460Z,21.00
2022-12-15T18:52:23.580Z,23.33
2022-12-15T18:54:54.129Z,20.83
2022-12-15T18:57:30.689Z,18.00
2022-12-15T18:59:59.934Z,19.23
2022-12-15T19:02:29.629Z,19.30
2022-12-15T19:04:57.944Z,19.13
2022-12-15T19:07:26.193Z,18.87
2022-12-15T19:09:54.753Z,18.63
2022-12-15T19:12:22.992Z,17.43
2022-12-15T19:14:52.546Z,18.00
2022-12-15T19:17:42.107Z,19.80
2022-12-15T19:20:34.085Z,16.40
2022-12-15T19:23:02.835Z,17.17
2022-12-15T19:25:31.777Z,18.50
2022-12-15T19:28:01.155Z,16.90
2022-12-15T19:30:30.452Z,16.63
2022-12-15T19:32:59.122Z,14.10
2022-12-15T19:35:29.421Z,15.17
2022-12-15T19:37:58.743Z,13.67
2022-12-15T19:40:30.320Z,15.47
2022-12-15T19:43:00.034Z,13.00
2022-12-15T19:45:29.236Z,14.07
2022-12-15T19:47:57.701Z,13.23
2022-12-15T19:50:26.743Z,12.40
2022-12-15T19:52:58.172Z,12.03
2022-12-15T19:55:28.465Z,12.43
2022-12-15T19:57:56.607Z,11.03
2022-12-15T20:00:25.289Z,12.63
2022-12-15T20:02:55.024Z,11.30
2022-12-15T20:05:24.317Z,14.70
2022-12-15T20:07:53.535Z,12.53
2022-12-15T20:10:31.240Z,12.37
2022-12-15T20:13:00.670Z,12.17
2022-12-15T20:15:29.035Z,12.53
2022-12-15T20:17:57.753Z,12.73
2022-12-15T20:20:28.846Z,12.90
2022-12-15T20:22:58.845Z,13.37
2022-12-15T20:25:31.197Z,13.93
2022-12-15T20:28:01.381Z,14.23
2022-12-15T20:30:32.750Z,13.47
2022-12-15T20:33:02.618Z,13.30
2022-12-15T20:35:33.317Z,19.43
2022-12-15T20:38:02.175Z,15.83
2022-12-15T20:40:32.388Z,13.77
2022-12-15T20:43:00.551Z,16.07
2022-12-15T20:45:28.836Z,16.53
2022-12-15T20:47:57.818Z,18.20
2022-12-15T20:50:29.401Z,15.20
2022-12-15T20:52:57.576Z,17.33
2022-12-15T20:55:25.772Z,14.17
2022-12-15T20:57:55.287Z,15.03
2022-12-15T21:00:24.056Z,14.73
2022-12-15T21:02:55.219Z,14.87
2022-12-15T21:05:25.820Z,14.67
2022-12-15T21:07:54.277Z,14.13
2022-12-15T21:10:22.556Z,13.70
2022-12-15T21:12:51.685Z,16.53
2022-12-15T21:15:22.894Z,13.97
2022-12-15T21:18:17.007Z,12.70
2022-12-15T21:20:42.931Z,13.17
2022-12-15T21:23:24.156Z,11.57
2022-12-15T21:25:53.441Z,11.63
2022-12-15T21:28:22.649Z,10.63
2022-12-15T21:30:52.939Z,11.33
2022-12-15T21:33:21.176Z,10.73
2022-12-15T21:35:49.551Z,9.27
2022-12-15T21:38:33.485Z,10.33
2022-12-15T21:41:04.133Z,9.80
2022-12-15T21:43:35.606Z,8.73
2022-12-15T21:46:14.430Z,9.37
2022-12-15T21:49:00.522Z,11.03
2022-12-15T21:51:31.620Z,9.60
2022-12-15T21:54:00.003Z,9.30
2022-12-15T21:56:29.668Z,8.60
2022-12-15T21:58:59.070Z,11.43
2022-12-15T22:01:31.602Z,9.90
2022-12-15T22:04:03.581Z,9.93
2022-12-15T22:06:31.870Z,9.17
2022-12-15T22:09:00.301Z,8.77
2022-12-15T22:11:30.808Z,10.27
2022-12-15T22:14:02.036Z,9.00
2022-12-15T22:16:31.651Z,11.63
2022-12-15T22:19:00.303Z,9.40
2022-12-15T22:21:28.509Z,10.70
2022-12-15T22:23:56.674Z,15.20
2022-12-15T22:26:29.958Z,9.03
2022-12-15T22:28:58.932Z,11.50
2022-12-15T22:31:27.517Z,8.90
2022-12-15T22:33:57.496Z,9.07
2022-12-15T22:36:25.903Z,9.30
2022-12-15T22:38:54.323Z,7.53
2022-12-15T22:41:24.123Z,9.13
2022-12-15T22:43:53.557Z,8.27
2022-12-15T22:46:25.472Z,8.53
2022-12-15T22:48:54.856Z,8.93
2022-12-15T22:51:25.202Z,8.37
2022-12-15T22:53:53.696Z,8.03
2022-12-15T22:56:24.541Z,8.07
2022-12-15T22:58:57.119Z,9.97
2022-12-15T23:01:26.869Z,10.53
2022-12-15T23:03:55.677Z,11.00
2022-12-15T23:06:25.539Z,10.63
2022-12-15T23:08:55.760Z,11.03
2022-12-15T23:11:38.974Z,10.37
2022-12-15T23:14:07.982Z,8.90
2022-12-15T23:16:35.942Z,11.60
2022-12-15T23:19:04.850Z,11.23
2022-12-15T23:21:34.993Z,9.10
2022-12-15T23:24:03.380Z,9.37
2022-12-15T23:26:31.833Z,9.37
2022-12-15T23:29:00.342Z,8.07
2022-12-15T23:31:28.982Z,7.93
2022-12-15T23:33:57.521Z,8.30
2022-12-15T23:36:25.941Z,9.07
2022-12-15T23:38:56.080Z,7.97
2022-12-15T23:41:24.536Z,8.47
2022-12-15T23:43:52.946Z,7.30
2022-12-15T23:46:21.460Z,8.60
2022-12-15T23:48:49.917Z,7.37
2022-12-15T23:51:21.333Z,6.50
2022-12-15T23:53:49.939Z,7.07
2022-12-15T23:56:22.515Z,8.43
2022-12-15T23:58:55.834Z,7.03
